createdAt,value
2018-08-13T00:00:50.989Z,52.55
2018-08-13T00:01:50.956Z,51.77
2018-08-13T00:02:51.255Z,50.90
2018-08-13T00:03:50.944Z,51.10
2018-08-13T00:04:50.926Z,50.42
2018-08-13T00:05:51.136Z,50.30
2018-08-13T00:06:51.242Z,50.90
2018-08-13T00:07:50.987Z,50.49
2018-08-13T00:08:50.926Z,51.07
2018-08-13T00:09:50.853Z,50.01
2018-08-13T00:10:51.019Z,49.84
2018-08-13T00:11:50.854Z,49.55
2018-08-13T00:12:50.822Z,49.75
2018-08-13T00:13:50.993Z,48.88
2018-08-13T00:14:50.759Z,49.17
2018-08-13T00:15:50.907Z,48.69
2018-08-13T00:16:50.869Z,48.59
2018-08-13T00:17:50.943Z,48.97
2018-08-13T00:18:50.948Z,49.07
2018-08-13T00:19:50.967Z,48.21
2018-08-13T00:20:50.980Z,48.69
2018-08-13T00:21:51.024Z,49.07
2018-08-13T00:22:50.954Z,49.27
2018-08-13T00:23:50.926Z,49.37
2018-08-13T00:24:50.967Z,48.88
2018-08-13T00:25:50.877Z,48.69
2018-08-13T00:26:50.784Z,48.97
2018-08-13T00:27:50.949Z,48.30
2018-08-13T00:28:50.982Z,48.49
2018-08-13T00:29:50.861Z,48.49
2018-08-13T00:30:50.805Z,48.59
2018-08-13T00:31:50.893Z,47.72
2018-08-13T00:32:50.502Z,48.01
2018-08-13T00:33:50.855Z,47.44
2018-08-13T00:34:50.883Z,47.72
2018-08-13T00:35:50.940Z,47.05
2018-08-13T00:36:50.944Z,47.24
2018-08-13T00:37:50.946Z,47.44
2018-08-13T00:38:50.951Z,47.51
2018-08-13T00:39:50.941Z,47.72
2018-08-13T00:40:50.953Z,48.30
2018-08-13T00:41:51.028Z,48.40
2018-08-13T00:42:51.020Z,48.49
2018-08-13T00:43:51.045Z,47.72
2018-08-13T00:44:51.106Z,47.24
2018-08-13T00:45:51.004Z,47.70
2018-08-13T00:46:51.038Z,47.89
2018-08-13T00:47:50.928Z,47.70
2018-08-13T00:48:50.844Z,47.72
2018-08-13T00:49:50.939Z,47.72
2018-08-13T00:50:50.870Z,47.80
2018-08-13T00:51:50.922Z,47.82
2018-08-13T00:52:50.903Z,47.72
2018-08-13T00:53:50.968Z,47.80
2018-08-13T00:54:51.075Z,47.60
2018-08-13T00:55:51.010Z,47.99
2018-08-13T00:56:50.834Z,48.11
2018-08-13T00:57:50.953Z,47.92
2018-08-13T00:58:51.008Z,47.34
2018-08-13T00:59:50.854Z,47.24
2018-08-13T01:00:50.950Z,47.24
2018-08-13T01:01:50.980Z,46.95
2018-08-13T01:02:50.734Z,47.31
2018-08-13T01:03:50.896Z,47.44
2018-08-13T01:04:50.827Z,47.70
2018-08-13T01:05:50.793Z,47.70
2018-08-13T01:06:51.341Z,48.08
2018-08-13T01:07:50.908Z,48.30
2018-08-13T01:08:50.837Z,48.11
2018-08-13T01:09:50.873Z,48.08
2018-08-13T01:10:50.914Z,48.69
2018-08-13T01:11:51.045Z,48.66
2018-08-13T01:12:51.038Z,48.97
2018-08-13T01:13:50.950Z,49.15
2018-08-13T01:14:52.842Z,48.86
2018-08-13T01:15:56.728Z,48.97
2018-08-13T01:16:50.919Z,49.24
2018-08-13T01:17:51.124Z,48.86
2018-08-13T01:18:51.073Z,48.66
2018-08-13T01:19:51.156Z,48.28
2018-08-13T01:20:51.086Z,48.57
2018-08-13T01:21:51.049Z,48.28
2018-08-13T01:22:50.996Z,48.66
2018-08-13T01:23:51.017Z,48.47
2018-08-13T01:24:51.118Z,48.66
2018-08-13T01:25:51.105Z,48.66
2018-08-13T01:26:51.144Z,48.86
2018-08-13T01:27:52.609Z,48.86
2018-08-13T01:28:50.873Z,48.47
2018-08-13T01:29:50.948Z,49.07
2018-08-13T01:30:50.975Z,50.01
2018-08-13T01:31:51.401Z,50.71
2018-08-13T01:32:50.854Z,50.21
2018-08-13T01:33:51.084Z,50.32
2018-08-13T01:34:51.408Z,49.73
2018-08-13T01:35:50.567Z,49.84
2018-08-13T01:36:51.041Z,49.07
2018-08-13T01:37:51.034Z,49.27
2018-08-13T01:38:51.017Z,49.05
2018-08-13T01:39:51.026Z,49.53
2018-08-13T01:40:51.029Z,49.82
2018-08-13T01:41:50.919Z,48.88
2018-08-13T01:42:50.980Z,48.86
2018-08-13T01:43:50.961Z,48.95
2018-08-13T01:44:51.040Z,48.95
2018-08-13T01:45:51.057Z,49.34
2018-08-13T01:46:51.038Z,48.86
2018-08-13T01:47:51.089Z,49.05
2018-08-13T01:48:51.010Z,49.24
2018-08-13T01:49:51.146Z,49.05
2018-08-13T01:50:51.012Z,49.05
2018-08-13T01:51:51.017Z,48.95
2018-08-13T01:52:50.927Z,48.88
2018-08-13T01:53:51.011Z,48.86
2018-08-13T01:54:50.987Z,49.05
2018-08-13T01:55:50.871Z,48.95
2018-08-13T01:56:51.080Z,49.34
2018-08-13T01:57:51.115Z,49.82
2018-08-13T01:58:51.029Z,48.95
2018-08-13T01:59:51.021Z,48.86
2018-08-13T02:00:51.024Z,48.95
2018-08-13T02:01:50.995Z,48.38
2018-08-13T02:02:50.998Z,48.28
2018-08-13T02:03:51.031Z,48.08
2018-08-13T02:04:50.945Z,48.28
2018-08-13T02:05:51.234Z,48.18
2018-08-13T02:06:51.244Z,48.47
2018-08-13T02:07:50.893Z,48.76
2018-08-13T02:08:50.962Z,48.57
2018-08-13T02:09:51.045Z,48.47
2018-08-13T02:10:51.015Z,48.66
2018-08-13T02:11:51.022Z,48.76
2018-08-13T02:12:50.471Z,48.76
2018-08-13T02:13:50.853Z,48.47
2018-08-13T02:14:52.628Z,48.47
2018-08-13T02:15:50.932Z,48.57
2018-08-13T02:16:50.869Z,48.66
2018-08-13T02:17:50.950Z,48.38
2018-08-13T02:18:50.890Z,48.47
2018-08-13T02:19:51.042Z,48.66
2018-08-13T02:20:51.234Z,48.38
2018-08-13T02:21:51.414Z,48.08
2018-08-13T02:22:51.157Z,48.08
2018-08-13T02:23:51.107Z,47.99
2018-08-13T02:24:51.182Z,48.57
2018-08-13T02:25:51.152Z,48.28
2018-08-13T02:26:51.096Z,48.66
2018-08-13T02:27:51.429Z,48.76
2018-08-13T02:28:51.032Z,48.86
2018-08-13T02:29:51.051Z,49.05
2018-08-13T02:30:51.049Z,48.66
2018-08-13T02:31:51.022Z,48.86
2018-08-13T02:32:51.111Z,48.47
2018-08-13T02:33:51.011Z,48.66
2018-08-13T02:34:50.901Z,49.15
2018-08-13T02:35:50.968Z,48.86
2018-08-13T02:36:50.948Z,48.95
2018-08-13T02:37:50.976Z,48.86
2018-08-13T02:38:50.934Z,49.05
2018-08-13T02:39:50.906Z,48.95
2018-08-13T02:40:50.994Z,48.86
2018-08-13T02:41:50.957Z,49.43
2018-08-13T02:42:50.959Z,49.05
2018-08-13T02:43:51.436Z,49.24
2018-08-13T02:44:50.721Z,49.34
2018-08-13T02:45:51.121Z,49.53
2018-08-13T02:46:51.094Z,49.70
2018-08-13T02:47:51.167Z,50.01
2018-08-13T02:48:51.274Z,49.60
2018-08-13T02:49:51.100Z,49.24
2018-08-13T02:50:51.126Z,49.15
2018-08-13T02:51:51.162Z,48.95
2018-08-13T02:52:51.249Z,49.34
2018-08-13T02:53:51.133Z,49.12
2018-08-13T02:54:51.190Z,49.02
2018-08-13T02:55:53.005Z,49.51
2018-08-13T02:56:51.139Z,48.83
2018-08-13T02:57:52.993Z,48.95
2018-08-13T02:58:50.970Z,48.95
2018-08-13T02:59:51.072Z,49.05
2018-08-13T03:00:51.120Z,49.32
2018-08-13T03:01:51.155Z,49.79
2018-08-13T03:02:51.060Z,49.22
2018-08-13T03:03:51.024Z,49.60
2018-08-13T03:04:51.390Z,49.70
2018-08-13T03:05:50.993Z,49.79
2018-08-13T03:06:51.117Z,49.70
2018-08-13T03:07:51.083Z,49.70
2018-08-13T03:08:51.075Z,49.51
2018-08-13T03:09:51.081Z,49.51
2018-08-13T03:10:51.072Z,49.79
2018-08-13T03:11:51.492Z,49.89
2018-08-13T03:12:50.717Z,49.70
2018-08-13T03:13:51.069Z,49.70
2018-08-13T03:14:51.106Z,49.89
2018-08-13T03:15:51.074Z,50.57
2018-08-13T03:16:51.023Z,50.57
2018-08-13T03:17:51.257Z,50.47
2018-08-13T03:18:51.053Z,49.99
2018-08-13T03:19:50.996Z,50.18
2018-08-13T03:20:50.990Z,50.47
2018-08-13T03:21:51.010Z,50.18
2018-08-13T03:22:50.966Z,50.18
2018-08-13T03:23:50.936Z,50.66
2018-08-13T03:24:51.121Z,50.49
2018-08-13T03:25:51.148Z,50.40
2018-08-13T03:26:51.007Z,50.95
2018-08-13T03:27:51.096Z,50.95
2018-08-13T03:28:51.112Z,50.85
2018-08-13T03:29:51.138Z,50.95
2018-08-13T03:30:51.069Z,50.57
2018-08-13T03:31:51.219Z,50.85
2018-08-13T03:32:51.154Z,51.14
2018-08-13T03:33:50.967Z,50.95
2018-08-13T03:34:51.100Z,51.05
2018-08-13T03:35:50.943Z,51.24
2018-08-13T03:36:51.446Z,50.95
2018-08-13T03:37:51.104Z,50.88
2018-08-13T03:38:51.086Z,51.34
2018-08-13T03:39:51.121Z,51.17
2018-08-13T03:40:51.177Z,51.24
2018-08-13T03:41:51.168Z,51.34
2018-08-13T03:42:51.218Z,51.72
2018-08-13T03:43:53.159Z,52.23
2018-08-13T03:44:51.056Z,52.01
2018-08-13T03:45:52.980Z,52.69
2018-08-13T03:46:53.224Z,52.01
2018-08-13T03:47:50.720Z,52.40
2018-08-13T03:48:51.134Z,51.65
2018-08-13T03:49:51.719Z,51.43
2018-08-13T03:50:50.591Z,50.95
2018-08-13T03:51:51.356Z,50.85
2018-08-13T03:52:51.849Z,50.66
2018-08-13T03:53:50.643Z,51.05
2018-08-13T03:54:51.029Z,51.14
2018-08-13T03:55:51.017Z,51.17
2018-08-13T03:56:50.965Z,50.78
2018-08-13T03:57:51.119Z,51.07
2018-08-13T03:58:51.058Z,50.88
2018-08-13T03:59:51.128Z,51.17
2018-08-13T04:00:51.100Z,50.98
2018-08-13T04:01:51.042Z,50.98
2018-08-13T04:02:51.027Z,51.26
2018-08-13T04:03:51.132Z,51.94
2018-08-13T04:04:51.452Z,51.84
2018-08-13T04:05:50.601Z,51.53
2018-08-13T04:06:50.995Z,51.46
2018-08-13T04:07:51.266Z,51.53
2018-08-13T04:08:51.751Z,51.75
2018-08-13T04:09:50.663Z,51.94
2018-08-13T04:10:52.749Z,51.94
2018-08-13T04:11:51.018Z,52.20
2018-08-13T04:12:51.063Z,52.01
2018-08-13T04:13:51.086Z,52.30
2018-08-13T04:14:51.085Z,52.11
2018-08-13T04:15:50.951Z,52.59
2018-08-13T04:16:50.993Z,52.20
2018-08-13T04:17:51.164Z,52.13
2018-08-13T04:18:51.123Z,52.11
2018-08-13T04:19:51.043Z,52.52
2018-08-13T04:20:51.022Z,52.97
2018-08-13T04:21:51.079Z,52.69
2018-08-13T04:22:51.085Z,52.97
2018-08-13T04:23:51.035Z,53.07
2018-08-13T04:24:51.083Z,52.87
2018-08-13T04:25:51.067Z,52.61
2018-08-13T04:26:51.126Z,52.20
2018-08-13T04:27:51.051Z,52.30
2018-08-13T04:28:50.992Z,52.30
2018-08-13T04:29:50.960Z,52.69
2018-08-13T04:30:51.002Z,53.27
2018-08-13T04:31:51.027Z,52.97
2018-08-13T04:32:51.218Z,52.78
2018-08-13T04:33:51.007Z,52.87
2018-08-13T04:34:51.043Z,53.07
2018-08-13T04:35:51.019Z,53.17
2018-08-13T04:36:51.037Z,53.17
2018-08-13T04:37:51.040Z,52.23
2018-08-13T04:38:50.974Z,52.49
2018-08-13T04:39:51.083Z,53.07
2018-08-13T04:40:51.043Z,53.07
2018-08-13T04:41:51.127Z,52.30
2018-08-13T04:42:51.130Z,52.61
2018-08-13T04:43:51.121Z,52.97
2018-08-13T04:44:51.135Z,52.23
2018-08-13T04:45:51.128Z,52.20
2018-08-13T04:46:51.190Z,52.23
2018-08-13T04:47:51.462Z,52.42
2018-08-13T04:49:50.587Z,52.71
2018-08-13T04:50:51.003Z,52.13
2018-08-13T04:51:51.013Z,52.71
2018-08-13T04:52:51.030Z,52.59
2018-08-13T04:53:51.004Z,52.61
2018-08-13T04:54:51.100Z,52.61
2018-08-13T04:55:52.955Z,52.61
2018-08-13T04:56:51.774Z,51.94
2018-08-13T04:57:50.877Z,52.87
2018-08-13T04:58:50.860Z,52.81
2018-08-13T04:59:51.306Z,53.17
2018-08-13T05:00:51.352Z,53.29
2018-08-13T05:01:50.698Z,52.69
2018-08-13T05:02:51.052Z,52.97
2018-08-13T05:03:51.083Z,52.81
2018-08-13T05:04:51.096Z,52.59
2018-08-13T05:05:51.026Z,53.09
2018-08-13T05:06:51.192Z,53.27
2018-08-13T05:07:51.111Z,53.29
2018-08-13T05:08:51.111Z,53.09
2018-08-13T05:09:51.114Z,53.00
2018-08-13T05:10:51.081Z,52.61
2018-08-13T05:11:51.152Z,53.09
2018-08-13T05:12:50.983Z,53.00
2018-08-13T05:13:50.989Z,53.17
2018-08-13T05:14:51.635Z,52.97
2018-08-13T05:15:51.211Z,52.87
2018-08-13T05:16:50.600Z,53.19
2018-08-13T05:17:51.480Z,53.19
2018-08-13T05:18:50.502Z,52.91
2018-08-13T05:19:51.016Z,53.58
2018-08-13T05:20:51.079Z,53.27
2018-08-13T05:21:51.296Z,53.65
2018-08-13T05:22:50.914Z,53.94
2018-08-13T05:23:51.571Z,53.17
2018-08-13T05:24:53.443Z,53.36
2018-08-13T05:25:50.983Z,53.39
2018-08-13T05:26:51.542Z,53.58
2018-08-13T05:27:51.327Z,53.84
2018-08-13T05:28:51.315Z,53.87
2018-08-13T05:29:51.330Z,54.03
2018-08-13T05:30:50.986Z,53.94
2018-08-13T05:31:51.472Z,53.74
2018-08-13T05:32:50.847Z,53.67
2018-08-13T05:33:51.306Z,53.39
2018-08-13T05:34:51.972Z,53.67
2018-08-13T05:35:50.782Z,54.03
2018-08-13T05:36:50.905Z,53.84
2018-08-13T05:37:51.493Z,53.67
2018-08-13T05:38:50.742Z,53.58
2018-08-13T05:39:51.520Z,53.45
2018-08-13T05:40:51.950Z,53.94
2018-08-13T05:41:50.996Z,53.45
2018-08-13T05:42:51.373Z,53.87
2018-08-13T05:43:51.571Z,53.58
2018-08-13T05:44:50.983Z,53.77
2018-08-13T05:45:50.955Z,53.74
2018-08-13T05:46:50.956Z,53.74
2018-08-13T05:47:51.293Z,53.55
2018-08-13T05:48:51.451Z,53.87
2018-08-13T05:49:51.501Z,54.06
2018-08-13T05:50:50.805Z,53.87
2018-08-13T05:51:50.949Z,53.77
2018-08-13T05:52:51.032Z,53.96
2018-08-13T05:53:50.957Z,53.96
2018-08-13T05:54:50.910Z,54.03
2018-08-13T05:55:51.613Z,53.94
2018-08-13T05:56:51.555Z,54.52
2018-08-13T05:57:50.561Z,54.52
2018-08-13T05:58:51.494Z,54.80
2018-08-13T05:59:50.531Z,55.09
2018-08-13T06:00:50.968Z,54.80
2018-08-13T06:01:51.201Z,54.44
2018-08-13T06:02:51.056Z,55.00
2018-08-13T06:03:51.030Z,54.80
2018-08-13T06:04:51.058Z,54.61
2018-08-13T06:05:51.503Z,55.19
2018-08-13T06:06:51.229Z,54.93
2018-08-13T06:07:51.156Z,55.31
2018-08-13T06:08:51.547Z,55.96
2018-08-13T06:09:50.940Z,55.12
2018-08-13T06:10:51.391Z,54.64
2018-08-13T06:11:51.002Z,54.80
2018-08-13T06:12:51.475Z,54.64
2018-08-13T06:13:50.610Z,55.22
2018-08-13T06:14:50.946Z,55.29
2018-08-13T06:15:50.952Z,55.51
2018-08-13T06:16:50.949Z,55.89
2018-08-13T06:17:50.942Z,56.82
2018-08-13T06:18:50.836Z,56.92
2018-08-13T06:19:53.011Z,57.12
2018-08-13T06:20:52.201Z,57.79
2018-08-13T06:21:50.629Z,57.60
2018-08-13T06:22:50.967Z,58.85
2018-08-13T06:23:51.173Z,59.23
2018-08-13T06:24:51.517Z,58.17
2018-08-13T06:25:51.044Z,57.79
2018-08-13T06:26:50.635Z,57.98
2018-08-13T06:27:51.424Z,58.27
2018-08-13T06:28:50.635Z,59.14
2018-08-13T06:29:51.836Z,58.85
2018-08-13T06:30:51.815Z,59.04
2018-08-13T06:31:51.315Z,58.85
2018-08-13T06:32:50.584Z,58.47
2018-08-13T06:33:50.897Z,59.04
2018-08-13T06:34:52.863Z,59.33
2018-08-13T06:35:52.796Z,59.23
2018-08-13T06:36:51.578Z,59.62
2018-08-13T06:37:51.016Z,58.95
2018-08-13T06:38:51.166Z,59.72
2018-08-13T06:39:51.486Z,59.52
2018-08-13T06:40:51.419Z,59.72
2018-08-13T06:41:51.043Z,60.00
2018-08-13T06:42:50.950Z,60.55
2018-08-13T06:43:51.514Z,60.84
2018-08-13T06:44:50.959Z,61.52
2018-08-13T06:45:51.323Z,61.52
2018-08-13T06:46:51.337Z,61.52
2018-08-13T06:47:51.408Z,61.65
2018-08-13T06:48:51.483Z,61.13
2018-08-13T06:49:51.041Z,61.83
2018-08-13T06:50:51.523Z,62.19
2018-08-13T06:51:50.951Z,61.90
2018-08-13T06:52:50.900Z,62.77
2018-08-13T06:53:50.954Z,63.25
2018-08-13T06:54:50.599Z,62.80
2018-08-13T06:55:51.222Z,62.60
2018-08-13T06:56:51.849Z,62.90
2018-08-13T06:57:51.050Z,63.57
2018-08-13T06:58:50.994Z,63.38
2018-08-13T06:59:51.354Z,63.47
2018-08-13T07:00:53.119Z,63.85
2018-08-13T07:01:51.421Z,64.82
2018-08-13T07:02:51.193Z,64.63
2018-08-13T07:03:51.528Z,65.40
2018-08-13T07:04:51.069Z,64.82
2018-08-13T07:05:51.540Z,65.53
2018-08-13T07:06:51.297Z,66.46
2018-08-13T07:07:50.979Z,66.94
2018-08-13T07:08:50.983Z,67.81
2018-08-13T07:09:51.256Z,68.68
2018-08-13T07:10:51.073Z,68.77
2018-08-13T07:11:51.114Z,69.06
2018-08-13T07:12:51.061Z,69.35
2018-08-13T07:13:51.027Z,69.54
2018-08-13T07:14:51.521Z,70.31
2018-08-13T07:15:51.030Z,70.98
2018-08-13T07:16:50.975Z,70.50
2018-08-13T07:17:51.401Z,71.47
2018-08-13T07:18:51.549Z,71.95
2018-08-13T07:19:51.533Z,71.18
2018-08-13T07:20:50.858Z,71.08
2018-08-13T07:21:50.852Z,72.05
2018-08-13T07:22:50.881Z,73.30
2018-08-13T07:23:53.074Z,73.39
2018-08-13T07:24:50.899Z,74.26
2018-08-13T07:25:51.545Z,73.49
2018-08-13T07:26:51.007Z,73.68
2018-08-13T07:27:51.092Z,74.07
2018-08-13T07:28:50.962Z,74.84
2018-08-13T07:29:51.677Z,75.16
2018-08-13T07:30:51.536Z,75.90
2018-08-13T07:31:51.252Z,77.25
2018-08-13T07:32:51.565Z,78.11
2018-08-13T07:33:50.945Z,78.50
2018-08-13T07:34:50.923Z,79.66
2018-08-13T07:35:51.090Z,79.46
2018-08-13T07:36:51.358Z,80.62
2018-08-13T07:37:51.975Z,81.58
2018-08-13T07:38:51.351Z,82.74
2018-08-13T07:39:51.942Z,83.03
2018-08-13T07:40:51.034Z,83.89
2018-08-13T07:41:51.504Z,83.26
2018-08-13T07:42:51.073Z,87.07
2018-08-13T07:43:50.983Z,88.23
2018-08-13T07:44:53.353Z,88.71
2018-08-13T07:45:51.534Z,89.67
2018-08-13T07:46:50.980Z,88.27
2018-08-13T07:47:50.993Z,90.20
2018-08-13T07:48:51.216Z,91.26
2018-08-13T07:49:51.095Z,90.68
2018-08-13T07:50:51.332Z,88.08
2018-08-13T07:51:51.648Z,87.12
2018-08-13T07:52:51.248Z,86.54
2018-08-13T07:53:51.184Z,88.12
2018-08-13T07:54:51.340Z,88.12
2018-08-13T07:55:51.542Z,87.74
2018-08-13T07:56:50.593Z,86.10
2018-08-13T07:57:51.004Z,86.87
2018-08-13T07:58:51.003Z,84.41
2018-08-13T07:59:51.379Z,83.98
2018-08-13T08:00:51.585Z,83.30
2018-08-13T08:01:51.378Z,84.17
2018-08-13T08:02:50.559Z,85.91
2018-08-13T08:03:50.729Z,85.33
2018-08-13T08:04:51.542Z,86.96
2018-08-13T08:05:52.826Z,87.74
2018-08-13T08:06:51.333Z,85.85
2018-08-13T08:07:51.579Z,84.69
2018-08-13T08:08:51.043Z,86.43
2018-08-13T08:09:51.074Z,86.87
2018-08-13T08:10:50.932Z,85.03
2018-08-13T08:11:50.998Z,84.59
2018-08-13T08:12:51.554Z,84.27
2018-08-13T08:13:51.007Z,83.40
2018-08-13T08:14:51.388Z,84.59
2018-08-13T08:15:51.565Z,84.01
2018-08-13T08:16:51.012Z,85.13
2018-08-13T08:17:50.990Z,84.01
2018-08-13T08:18:51.004Z,84.69
2018-08-13T08:19:51.415Z,86.52
2018-08-13T08:20:51.556Z,85.46
2018-08-13T08:21:51.088Z,85.27
2018-08-13T08:22:53.032Z,85.17
2018-08-13T08:23:51.508Z,83.92
2018-08-13T08:24:51.013Z,85.37
2018-08-13T08:25:51.384Z,86.47
2018-08-13T08:26:51.475Z,86.52
2018-08-13T08:27:51.363Z,84.79
2018-08-13T08:28:51.503Z,86.04
2018-08-13T08:29:51.050Z,85.56
2018-08-13T08:30:51.108Z,85.42
2018-08-13T08:31:50.642Z,87.01
2018-08-13T08:32:51.004Z,86.52
2018-08-13T08:33:50.998Z,86.14
2018-08-13T08:34:51.229Z,87.49
2018-08-13T08:35:51.554Z,85.56
2018-08-13T08:36:51.553Z,86.72
2018-08-13T08:37:51.081Z,86.04
2018-08-13T08:38:50.994Z,86.14
2018-08-13T08:39:52.870Z,87.88
2018-08-13T08:40:51.122Z,87.20
2018-08-13T08:41:51.214Z,88.31
2018-08-13T08:42:51.206Z,89.03
2018-08-13T08:43:51.065Z,88.65
2018-08-13T08:44:51.064Z,88.89
2018-08-13T08:45:51.528Z,90.44
2018-08-13T08:46:51.020Z,90.00
2018-08-13T08:47:50.878Z,90.29
2018-08-13T08:48:51.190Z,89.67
2018-08-13T08:49:51.063Z,89.13
2018-08-13T08:50:51.075Z,89.03
2018-08-13T08:51:51.135Z,89.03
2018-08-13T08:52:52.073Z,87.59
2018-08-13T08:53:50.740Z,86.91
2018-08-13T08:54:51.366Z,87.30
2018-08-13T08:55:50.972Z,86.43
2018-08-13T08:56:50.960Z,86.72
2018-08-13T08:57:51.400Z,86.68
2018-08-13T08:58:51.186Z,87.35
2018-08-13T08:59:51.026Z,86.87
2018-08-13T09:00:51.194Z,86.14
2018-08-13T09:01:51.143Z,86.72
2018-08-13T09:02:51.234Z,86.04
2018-08-13T09:03:51.566Z,85.31
2018-08-13T09:04:51.568Z,86.04
2018-08-13T09:05:51.067Z,85.02
2018-08-13T09:06:51.098Z,84.69
2018-08-13T09:07:51.024Z,85.17
2018-08-13T09:08:51.432Z,84.98
2018-08-13T09:09:51.948Z,84.89
2018-08-13T09:10:51.028Z,84.79
2018-08-13T09:11:51.042Z,84.50
2018-08-13T09:12:51.545Z,84.69
2018-08-13T09:13:51.070Z,84.59
2018-08-13T09:14:53.103Z,84.79
2018-08-13T09:15:50.714Z,85.08
2018-08-13T09:16:51.132Z,85.08
2018-08-13T09:17:51.569Z,85.85
2018-08-13T09:18:51.049Z,85.17
2018-08-13T09:19:51.410Z,85.75
2018-08-13T09:20:50.766Z,84.50
2018-08-13T09:21:51.364Z,84.79
2018-08-13T09:22:51.578Z,84.31
2018-08-13T09:23:53.034Z,84.50
2018-08-13T09:24:51.038Z,84.21
2018-08-13T09:25:51.565Z,83.00
2018-08-13T09:26:51.896Z,82.90
2018-08-13T09:27:51.291Z,82.13
2018-08-13T09:28:53.379Z,82.76
2018-08-13T09:29:51.386Z,82.48
2018-08-13T09:30:50.634Z,81.70
2018-08-13T09:31:50.882Z,81.76
2018-08-13T09:32:51.399Z,81.41
2018-08-13T09:33:50.753Z,82.09
2018-08-13T09:34:51.240Z,81.41
2018-08-13T09:35:51.583Z,81.41
2018-08-13T09:36:51.033Z,81.51
2018-08-13T09:37:51.015Z,81.51
2018-08-13T09:38:52.841Z,81.12
2018-08-13T09:39:52.995Z,81.32
2018-08-13T09:40:51.311Z,81.32
2018-08-13T09:41:51.224Z,81.02
2018-08-13T09:42:51.180Z,80.74
2018-08-13T09:43:51.186Z,80.74
2018-08-13T09:44:53.439Z,80.45
2018-08-13T09:45:52.823Z,81.22
2018-08-13T09:46:51.444Z,81.12
2018-08-13T09:47:51.041Z,81.41
2018-08-13T09:48:51.091Z,80.93
2018-08-13T09:49:51.513Z,81.35
2018-08-13T09:50:51.589Z,80.68
2018-08-13T09:51:51.085Z,80.78
2018-08-13T09:52:51.913Z,80.30
2018-08-13T09:53:51.229Z,80.78
2018-08-13T09:54:51.135Z,80.30
2018-08-13T09:55:51.583Z,79.72
2018-08-13T09:56:51.463Z,80.20
2018-08-13T09:57:51.611Z,79.33
2018-08-13T09:58:51.392Z,79.24
2018-08-13T09:59:51.151Z,79.72
2018-08-13T10:00:51.206Z,79.52
2018-08-13T10:01:51.612Z,79.43
2018-08-13T10:02:51.594Z,79.56
2018-08-13T10:03:51.916Z,79.52
2018-08-13T10:04:51.393Z,79.08
2018-08-13T10:05:51.435Z,79.37
2018-08-13T10:06:51.374Z,79.17
2018-08-13T10:07:51.391Z,79.17
2018-08-13T10:08:51.893Z,77.76
2018-08-13T10:09:53.416Z,77.38
2018-08-13T10:10:51.711Z,76.61
2018-08-13T10:11:51.104Z,76.51
2018-08-13T10:12:51.146Z,77.28
2018-08-13T10:13:51.492Z,77.48
2018-08-13T10:14:51.053Z,77.19
2018-08-13T10:15:51.050Z,76.70
2018-08-13T10:16:51.526Z,75.74
2018-08-13T10:17:51.167Z,75.39
2018-08-13T10:18:51.169Z,74.42
2018-08-13T10:19:53.414Z,74.13
2018-08-13T10:20:51.065Z,74.13
2018-08-13T10:21:51.059Z,74.13
2018-08-13T10:22:51.653Z,73.74
2018-08-13T10:23:51.337Z,73.55
2018-08-13T10:24:53.116Z,73.55
2018-08-13T10:25:52.167Z,73.46
2018-08-13T10:26:51.023Z,73.36
2018-08-13T10:27:51.280Z,72.88
2018-08-13T10:28:51.623Z,73.07
2018-08-13T10:29:51.666Z,72.68
2018-08-13T10:30:53.420Z,72.91
2018-08-13T10:31:51.682Z,71.84
2018-08-13T10:32:51.190Z,70.59
2018-08-13T10:33:53.507Z,70.78
2018-08-13T10:34:51.103Z,71.56
2018-08-13T10:35:51.464Z,71.66
2018-08-13T10:36:53.200Z,71.36
2018-08-13T10:37:51.560Z,71.08
2018-08-13T10:38:51.616Z,70.43
2018-08-13T10:39:50.871Z,70.43
2018-08-13T10:40:52.176Z,69.95
2018-08-13T10:41:52.118Z,69.27
2018-08-13T10:42:51.654Z,69.46
2018-08-13T10:43:51.777Z,68.73
2018-08-13T10:44:51.948Z,68.24
2018-08-13T10:45:51.914Z,67.56
2018-08-13T10:46:51.427Z,67.46
2018-08-13T10:47:51.363Z,66.50
2018-08-13T10:48:51.111Z,66.78
2018-08-13T10:49:51.782Z,66.34
2018-08-13T10:50:51.113Z,66.20
2018-08-13T10:51:51.436Z,65.75
2018-08-13T10:52:51.113Z,65.08
2018-08-13T10:53:51.417Z,65.37
2018-08-13T10:54:51.659Z,64.92
2018-08-13T10:55:51.558Z,64.89
2018-08-13T10:56:51.668Z,64.98
2018-08-13T10:57:51.934Z,65.08
2018-08-13T10:58:51.309Z,65.17
2018-08-13T10:59:51.353Z,64.92
2018-08-13T11:00:53.242Z,64.62
2018-08-13T11:01:51.427Z,64.07
2018-08-13T11:02:51.154Z,62.62
2018-08-13T11:03:51.002Z,63.10
2018-08-13T11:04:51.995Z,62.72
2018-08-13T11:05:51.626Z,62.23
2018-08-13T11:06:51.940Z,62.52
2018-08-13T11:07:51.454Z,63.07
2018-08-13T11:08:51.958Z,63.46
2018-08-13T11:09:51.591Z,63.75
2018-08-13T11:10:52.062Z,63.20
2018-08-13T11:11:51.125Z,62.52
2018-08-13T11:12:51.087Z,61.85
2018-08-13T11:13:51.625Z,61.36
2018-08-13T11:14:52.124Z,62.04
2018-08-13T11:15:52.135Z,61.00
2018-08-13T11:16:53.126Z,61.58
2018-08-13T11:17:51.421Z,60.91
2018-08-13T11:18:51.483Z,61.17
2018-08-13T11:19:52.042Z,61.72
2018-08-13T11:20:51.195Z,62.98
2018-08-13T11:21:51.703Z,63.17
2018-08-13T11:22:52.794Z,63.17
2018-08-13T11:23:51.702Z,62.40
2018-08-13T11:24:52.068Z,62.69
2018-08-13T11:25:53.589Z,63.82
2018-08-13T11:26:51.450Z,64.34
2018-08-13T11:27:51.981Z,63.78
2018-08-13T11:28:51.485Z,63.72
2018-08-13T11:29:51.855Z,65.43
2018-08-13T11:30:51.440Z,66.79
2018-08-13T11:31:51.544Z,68.12
2018-08-13T11:32:51.971Z,67.34
2018-08-13T11:33:51.632Z,66.37
2018-08-13T11:34:51.722Z,65.43
2018-08-13T11:35:51.563Z,65.63
2018-08-13T11:36:51.472Z,65.24
2018-08-13T11:37:51.356Z,65.24
2018-08-13T11:38:51.648Z,63.82
2018-08-13T11:39:51.005Z,64.27
2018-08-13T11:40:51.974Z,64.37
2018-08-13T11:41:51.616Z,63.98
2018-08-13T11:42:51.680Z,63.23
2018-08-13T11:43:51.441Z,63.53
2018-08-13T11:44:51.465Z,63.75
2018-08-13T11:45:51.446Z,62.95
2018-08-13T11:46:52.644Z,62.55
2018-08-13T11:47:51.947Z,62.75
2018-08-13T11:48:51.666Z,63.69
2018-08-13T11:49:51.665Z,64.65
2018-08-13T11:50:52.019Z,64.50
2018-08-13T11:51:51.178Z,63.98
2018-08-13T11:52:51.517Z,63.62
2018-08-13T11:53:52.157Z,63.40
2018-08-13T11:54:50.861Z,63.78
2018-08-13T11:55:50.794Z,62.46
2018-08-13T11:56:51.424Z,62.07
2018-08-13T11:57:52.275Z,61.88
2018-08-13T11:58:51.640Z,61.98
2018-08-13T11:59:50.991Z,62.82
2018-08-13T12:00:51.742Z,62.55
2018-08-13T12:01:51.429Z,62.26
2018-08-13T12:02:51.450Z,61.91
2018-08-13T12:03:51.469Z,61.91
2018-08-13T12:04:57.931Z,61.88
2018-08-13T12:06:05.735Z,61.42
2018-08-13T12:06:52.081Z,59.90
2018-08-13T12:07:51.646Z,59.83
2018-08-13T12:08:51.913Z,59.44
2018-08-13T12:09:52.022Z,58.59
2018-08-13T12:10:51.439Z,58.14
2018-08-13T12:11:51.467Z,57.33
2018-08-13T12:12:52.139Z,57.17
2018-08-13T12:13:51.930Z,57.14
2018-08-13T12:14:51.445Z,57.23
2018-08-13T12:15:51.696Z,57.26
2018-08-13T12:16:53.735Z,57.85
2018-08-13T12:17:51.059Z,58.59
2018-08-13T12:19:51.694Z,58.59
2018-08-13T12:20:51.944Z,58.54
2018-08-13T12:21:51.855Z,60.19
2018-08-13T12:22:51.849Z,60.00
2018-08-13T12:23:51.730Z,61.13
2018-08-13T12:24:52.201Z,62.19
2018-08-13T12:25:51.036Z,62.52
2018-08-13T12:26:51.674Z,63.78
2018-08-13T12:27:51.972Z,63.59
2018-08-13T12:28:52.107Z,63.23
2018-08-13T12:29:52.050Z,62.65
2018-08-13T12:30:51.566Z,62.46
2018-08-13T12:31:51.436Z,63.13
2018-08-13T12:32:51.163Z,63.13
2018-08-13T12:33:52.092Z,62.46
2018-08-13T12:34:54.010Z,62.29
2018-08-13T12:35:51.603Z,62.10
2018-08-13T12:36:51.475Z,61.81
2018-08-13T12:37:51.707Z,60.68
2018-08-13T12:38:51.656Z,59.61
2018-08-13T12:39:52.165Z,60.58
2018-08-13T12:40:51.166Z,60.48
2018-08-13T12:41:51.424Z,60.00
2018-08-13T12:42:52.030Z,60.77
2018-08-13T12:43:52.044Z,59.77
2018-08-13T12:44:51.897Z,60.38
2018-08-13T12:45:51.384Z,60.28
2018-08-13T12:46:51.861Z,60.48
2018-08-13T12:47:51.557Z,60.28
2018-08-13T12:48:52.119Z,60.00
2018-08-13T12:49:51.815Z,60.84
2018-08-13T12:50:51.880Z,60.71
2018-08-13T12:51:51.575Z,61.78
2018-08-13T12:52:52.004Z,62.75
2018-08-13T12:53:52.173Z,61.98
2018-08-13T12:54:51.555Z,61.65